sensor_id;sensor_type;location;lat;lon;timestamp;temperature;humidity
4215;DHT22;2121;48.062;7.850;2022-11-20T00:01:17;6.80;99.90
4215;DHT22;2121;48.062;7.850;2022-11-20T00:03:44;6.80;99.90
4215;DHT22;2121;48.062;7.850;2022-11-20T00:06:20;6.90;99.90
4215;DHT22;2121;48.062;7.850;2022-11-20T00:08:47;6.90;99.90
4215;DHT22;2121;48.062;7.850;2022-11-20T00:13:43;6.90;99.90
4215;DHT22;2121;48.062;7.850;2022-11-20T00:16:11;6.80;99.90
4215;DHT22;2121;48.062;7.850;2022-11-20T00:18:37;6.80;99.90
4215;DHT22;2121;48.062;7.850;2022-11-20T00:21:04;6.90;99.90
4215;DHT22;2121;48.062;7.850;2022-11-20T00:23:36;6.80;99.90
4215;DHT22;2121;48.062;7.850;2022-11-20T00:26:06;6.90;99.90
4215;DHT22;2121;48.062;7.850;2022-11-20T00:28:34;6.90;99.90
4215;DHT22;2121;48.062;7.850;2022-11-20T00:31:07;6.80;99.90
4215;DHT22;2121;48.062;7.850;2022-11-20T00:33:37;6.80;99.90
4215;DHT22;2121;48.062;7.850;2022-11-20T00:36:08;6.80;99.90
4215;DHT22;2121;48.062;7.850;2022-11-20T00:38:36;6.80;99.90
4215;DHT22;2121;48.062;7.850;2022-11-20T00:41:04;6.80;99.90
4215;DHT22;2121;48.062;7.850;2022-11-20T00:43:31;6.80;99.90
4215;DHT22;2121;48.062;7.850;2022-11-20T00:46:02;6.80;99.90
4215;DHT22;2121;48.062;7.850;2022-11-20T00:48:32;6.80;99.90
4215;DHT22;2121;48.062;7.850;2022-11-20T00:50:58;6.80;99.90
4215;DHT22;2121;48.062;7.850;2022-11-20T00:53:25;6.80;99.90
4215;DHT22;2121;48.062;7.850;2022-11-20T00:55:59;6.80;99.90
4215;DHT22;2121;48.062;7.850;2022-11-20T00:58:30;6.80;99.90
4215;DHT22;2121;48.062;7.850;2022-11-20T01:01:04;6.80;99.90
4215;DHT22;2121;48.062;7.850;2022-11-20T01:03:33;6.80;99.90
4215;DHT22;2121;48.062;7.850;2022-11-20T01:06:12;6.80;99.90
4215;DHT22;2121;48.062;7.850;2022-11-20T01:08:39;6.80;99.90
4215;DHT22;2121;48.062;7.850;2022-11-20T01:11:11;6.70;99.90
4215;DHT22;2121;48.062;7.850;2022-11-20T01:13:39;6.70;99.90
4215;DHT22;2121;48.062;7.850;2022-11-20T01:18:34;6.70;99.90
4215;DHT22;2121;48.062;7.850;2022-11-20T01:21:12;6.70;99.90
4215;DHT22;2121;48.062;7.850;2022-11-20T01:23:46;6.70;99.90
4215;DHT22;2121;48.062;7.850;2022-11-20T01:26:15;6.70;99.90
4215;DHT22;2121;48.062;7.850;2022-11-20T01:28:43;6.70;99.90
4215;DHT22;2121;48.062;7.850;2022-11-20T01:31:18;6.70;99.90
4215;DHT22;2121;48.062;7.850;2022-11-20T01:33:49;6.80;99.90
4215;DHT22;2121;48.062;7.850;2022-11-20T01:36:17;6.70;99.90
4215;DHT22;2121;48.062;7.850;2022-11-20T01:38:44;6.70;99.90
4215;DHT22;2121;48.062;7.850;2022-11-20T01:41:11;6.70;99.90
4215;DHT22;2121;48.062;7.850;2022-11-20T01:44:02;6.70;99.90
4215;DHT22;2121;48.062;7.850;2022-11-20T01:46:28;6.70;99.90
4215;DHT22;2121;48.062;7.850;2022-11-20T01:51:41;6.70;99.90
4215;DHT22;2121;48.062;7.850;2022-11-20T01:54:24;6.70;99.90
4215;DHT22;2121;48.062;7.850;2022-11-20T01:56:56;6.70;99.90
4215;DHT22;2121;48.062;7.850;2022-11-20T01:59:25;6.80;99.90
4215;DHT22;2121;48.062;7.850;2022-11-20T02:01:52;6.70;99.90
4215;DHT22;2121;48.062;7.850;2022-11-20T02:04:18;6.70;99.90
4215;DHT22;2121;48.062;7.850;2022-11-20T02:06:59;6.70;99.90
4215;DHT22;2121;48.062;7.850;2022-11-20T02:09:26;6.70;99.90
4215;DHT22;2121;48.062;7.850;2022-11-20T02:11:52;6.70;99.90
4215;DHT22;2121;48.062;7.850;2022-11-20T02:14:19;6.80;99.90
4215;DHT22;2121;48.062;7.850;2022-11-20T02:16:47;6.80;99.90
4215;DHT22;2121;48.062;7.850;2022-11-20T02:24:33;6.80;99.90
4215;DHT22;2121;48.062;7.850;2022-11-20T02:27:05;6.80;99.90
4215;DHT22;2121;48.062;7.850;2022-11-20T02:32:41;6.80;99.90
4215;DHT22;2121;48.062;7.850;2022-11-20T02:37:56;6.80;99.90
4215;DHT22;2121;48.062;7.850;2022-11-20T02:40:24;6.80;99.90
4215;DHT22;2121;48.062;7.850;2022-11-20T02:42:53;6.80;99.90
4215;DHT22;2121;48.062;7.850;2022-11-20T02:45:19;6.80;99.90
4215;DHT22;2121;48.062;7.850;2022-11-20T02:47:46;6.80;99.90
4215;DHT22;2121;48.062;7.850;2022-11-20T02:50:11;6.70;99.90
4215;DHT22;2121;48.062;7.850;2022-11-20T02:52:37;6.70;99.90
4215;DHT22;2121;48.062;7.850;2022-11-20T02:55:03;6.70;99.90
4215;DHT22;2121;48.062;7.850;2022-11-20T02:57:30;6.70;99.90
4215;DHT22;2121;48.062;7.850;2022-11-20T02:59:55;6.70;99.90
4215;DHT22;2121;48.062;7.850;2022-11-20T03:02:21;6.70;99.90
4215;DHT22;2121;48.062;7.850;2022-11-20T03:04:47;6.70;99.90
4215;DHT22;2121;48.062;7.850;2022-11-20T03:07:13;6.70;99.90
4215;DHT22;2121;48.062;7.850;2022-11-20T03:09:38;6.70;99.90
4215;DHT22;2121;48.062;7.850;2022-11-20T03:12:04;6.70;99.90
4215;DHT22;2121;48.062;7.850;2022-11-20T03:14:30;6.70;99.90
4215;DHT22;2121;48.062;7.850;2022-11-20T03:16:56;6.70;99.90
4215;DHT22;2121;48.062;7.850;2022-11-20T03:19:22;6.70;99.90
4215;DHT22;2121;48.062;7.850;2022-11-20T03:21:48;6.60;99.90
4215;DHT22;2121;48.062;7.850;2022-11-20T03:24:14;6.70;99.90
4215;DHT22;2121;48.062;7.850;2022-11-20T03:26:40;6.70;99.90
4215;DHT22;2121;48.062;7.850;2022-11-20T03:29:06;6.70;99.90
4215;DHT22;2121;48.062;7.850;2022-11-20T03:31:35;6.70;99.90
4215;DHT22;2121;48.062;7.850;2022-11-20T03:34:03;6.70;99.90
4215;DHT22;2121;48.062;7.850;2022-11-20T03:36:29;6.70;99.90
4215;DHT22;2121;48.062;7.850;2022-11-20T03:38:56;6.70;99.90
4215;DHT22;2121;48.062;7.850;2022-11-20T03:41:24;6.70;99.90
4215;DHT22;2121;48.062;7.850;2022-11-20T03:43:56;6.80;99.90
4215;DHT22;2121;48.062;7.850;2022-11-20T03:46:24;6.80;99.90
4215;DHT22;2121;48.062;7.850;2022-11-20T03:48:51;6.70;99.90
4215;DHT22;2121;48.062;7.850;2022-11-20T03:51:20;6.70;99.90
4215;DHT22;2121;48.062;7.850;2022-11-20T03:53:54;6.70;99.90
4215;DHT22;2121;48.062;7.850;2022-11-20T03:56:27;6.80;99.90
4215;DHT22;2121;48.062;7.850;2022-11-20T03:58:55;6.70;99.90
4215;DHT22;2121;48.062;7.850;2022-11-20T04:01:23;6.60;99.90
4215;DHT22;2121;48.062;7.850;2022-11-20T04:03:52;6.60;99.90
4215;DHT22;2121;48.062;7.850;2022-11-20T04:06:22;6.60;99.90
4215;DHT22;2121;48.062;7.850;2022-11-20T04:08:49;6.70;99.90
4215;DHT22;2121;48.062;7.850;2022-11-20T04:11:19;6.60;99.90
4215;DHT22;2121;48.062;7.850;2022-11-20T04:13:50;6.70;99.90
4215;DHT22;2121;48.062;7.850;2022-11-20T04:16:24;6.70;99.90
4215;DHT22;2121;48.062;7.850;2022-11-20T04:18:56;6.70;99.90
4215;DHT22;2121;48.062;7.850;2022-11-20T04:21:23;6.70;99.90
4215;DHT22;2121;48.062;7.850;2022-11-20T04:23:51;6.80;99.90
4215;DHT22;2121;48.062;7.850;2022-11-20T04:26:18;6.80;99.90
4215;DHT22;2121;48.062;7.850;2022-11-20T04:28:45;6.80;99.90
4215;DHT22;2121;48.062;7.850;2022-11-20T04:31:13;6.70;99.90
4215;DHT22;2121;48.062;7.850;2022-11-20T04:33:41;6.70;99.90
4215;DHT22;2121;48.062;7.850;2022-11-20T04:36:12;6.60;99.90
4215;DHT22;2121;48.062;7.850;2022-11-20T04:38:39;6.60;99.90
4215;DHT22;2121;48.062;7.850;2022-11-20T04:41:07;6.50;99.90
4215;DHT22;2121;48.062;7.850;2022-11-20T04:43:35;6.40;99.90
4215;DHT22;2121;48.062;7.850;2022-11-20T04:46:01;6.30;99.90
4215;DHT22;2121;48.062;7.850;2022-11-20T04:48:28;6.30;99.90
4215;DHT22;2121;48.062;7.850;2022-11-20T04:50:54;6.30;99.90
4215;DHT22;2121;48.062;7.850;2022-11-20T04:53:21;6.30;99.90
4215;DHT22;2121;48.062;7.850;2022-11-20T04:55:47;6.30;99.90
4215;DHT22;2121;48.062;7.850;2022-11-20T04:58:14;6.30;99.90
4215;DHT22;2121;48.062;7.850;2022-11-20T05:00:40;6.30;99.90
4215;DHT22;2121;48.062;7.850;2022-11-20T05:03:06;6.30;99.90
4215;DHT22;2121;48.062;7.850;2022-11-20T05:05:33;6.30;99.90
4215;DHT22;2121;48.062;7.850;2022-11-20T05:08:00;6.40;99.90
4215;DHT22;2121;48.062;7.850;2022-11-20T05:10:26;6.30;99.90
4215;DHT22;2121;48.062;7.850;2022-11-20T05:12:53;6.30;99.90
4215;DHT22;2121;48.062;7.850;2022-11-20T05:15:19;6.40;99.90
4215;DHT22;2121;48.062;7.850;2022-11-20T05:17:51;6.40;99.90
4215;DHT22;2121;48.062;7.850;2022-11-20T05:20:18;6.40;99.90
4215;DHT22;2121;48.062;7.850;2022-11-20T05:22:44;6.40;99.90
4215;DHT22;2121;48.062;7.850;2022-11-20T05:25:10;6.50;99.90
4215;DHT22;2121;48.062;7.850;2022-11-20T05:27:37;6.50;99.90
4215;DHT22;2121;48.062;7.850;2022-11-20T05:30:04;6.50;99.90
4215;DHT22;2121;48.062;7.850;2022-11-20T05:32:30;6.50;99.90
4215;DHT22;2121;48.062;7.850;2022-11-20T05:34:56;6.60;99.90
4215;DHT22;2121;48.062;7.850;2022-11-20T05:37:21;6.60;99.90
4215;DHT22;2121;48.062;7.850;2022-11-20T05:39:47;6.60;99.90
4215;DHT22;2121;48.062;7.850;2022-11-20T05:42:13;6.60;99.90
4215;DHT22;2121;48.062;7.850;2022-11-20T05:44:58;6.60;99.90
4215;DHT22;2121;48.062;7.850;2022-11-20T05:47:25;6.60;99.90
4215;DHT22;2121;48.062;7.850;2022-11-20T05:49:51;6.60;99.90
4215;DHT22;2121;48.062;7.850;2022-11-20T05:52:17;6.70;99.90
4215;DHT22;2121;48.062;7.850;2022-11-20T05:54:43;6.60;99.90
4215;DHT22;2121;48.062;7.850;2022-11-20T05:57:08;6.60;99.90
4215;DHT22;2121;48.062;7.850;2022-11-20T05:59:34;6.70;99.90
4215;DHT22;2121;48.062;7.850;2022-11-20T06:02:00;6.70;99.90
4215;DHT22;2121;48.062;7.850;2022-11-20T06:04:26;6.60;99.90
4215;DHT22;2121;48.062;7.850;2022-11-20T06:06:51;6.70;99.90
4215;DHT22;2121;48.062;7.850;2022-11-20T06:09:17;6.70;99.90
4215;DHT22;2121;48.062;7.850;2022-11-20T06:11:43;6.70;99.90
4215;DHT22;2121;48.062;7.850;2022-11-20T06:14:08;6.70;99.90
4215;DHT22;2121;48.062;7.850;2022-11-20T06:16:34;6.70;99.90
4215;DHT22;2121;48.062;7.850;2022-11-20T06:19:00;6.70;99.90
4215;DHT22;2121;48.062;7.850;2022-11-20T06:21:25;6.70;99.90
4215;DHT22;2121;48.062;7.850;2022-11-20T06:23:52;6.70;99.90
4215;DHT22;2121;48.062;7.850;2022-11-20T06:26:24;6.70;99.90
4215;DHT22;2121;48.062;7.850;2022-11-20T06:28:51;6.70;99.90
4215;DHT22;2121;48.062;7.850;2022-11-20T06:31:19;6.70;99.90
4215;DHT22;2121;48.062;7.850;2022-11-20T06:33:46;6.60;99.90
4215;DHT22;2121;48.062;7.850;2022-11-20T06:36:13;6.50;99.90
4215;DHT22;2121;48.062;7.850;2022-11-20T06:38:40;6.40;99.90
4215;DHT22;2121;48.062;7.850;2022-11-20T06:41:10;6.30;99.90
4215;DHT22;2121;48.062;7.850;2022-11-20T06:43:37;6.30;99.90
4215;DHT22;2121;48.062;7.850;2022-11-20T06:46:03;6.30;99.90
4215;DHT22;2121;48.062;7.850;2022-11-20T06:48:30;6.20;99.90
4215;DHT22;2121;48.062;7.850;2022-11-20T06:50:56;6.30;99.90
4215;DHT22;2121;48.062;7.850;2022-11-20T06:53:23;6.30;99.90
4215;DHT22;2121;48.062;7.850;2022-11-20T06:55:50;6.30;99.90
4215;DHT22;2121;48.062;7.850;2022-11-20T06:58:17;6.30;99.90
4215;DHT22;2121;48.062;7.850;2022-11-20T07:00:43;6.30;99.90
4215;DHT22;2121;48.062;7.850;2022-11-20T07:03:10;6.30;99.90
4215;DHT22;2121;48.062;7.850;2022-11-20T07:05:37;6.40;99.90
4215;DHT22;2121;48.062;7.850;2022-11-20T07:08:04;6.40;99.90
4215;DHT22;2121;48.062;7.850;2022-11-20T07:10:30;6.40;99.90
4215;DHT22;2121;48.062;7.850;2022-11-20T07:12:57;6.40;99.90
4215;DHT22;2121;48.062;7.850;2022-11-20T07:15:24;6.50;99.90
4215;DHT22;2121;48.062;7.850;2022-11-20T07:17:50;6.60;99.90
4215;DHT22;2121;48.062;7.850;2022-11-20T07:20:16;6.60;99.90
4215;DHT22;2121;48.062;7.850;2022-11-20T07:22:42;6.70;99.90
4215;DHT22;2121;48.062;7.850;2022-11-20T07:25:09;6.70;99.90
4215;DHT22;2121;48.062;7.850;2022-11-20T07:27:36;6.80;99.90
4215;DHT22;2121;48.062;7.850;2022-11-20T07:30:03;6.80;99.90
4215;DHT22;2121;48.062;7.850;2022-11-20T07:32:29;6.80;99.90
4215;DHT22;2121;48.062;7.850;2022-11-20T07:34:55;6.90;99.90
4215;DHT22;2121;48.062;7.850;2022-11-20T07:37:20;6.90;99.90
4215;DHT22;2121;48.062;7.850;2022-11-20T07:39:46;6.90;99.90
4215;DHT22;2121;48.062;7.850;2022-11-20T07:42:12;6.90;99.90
4215;DHT22;2121;48.062;7.850;2022-11-20T07:44:38;6.80;99.90
4215;DHT22;2121;48.062;7.850;2022-11-20T07:47:04;6.80;99.90
4215;DHT22;2121;48.062;7.850;2022-11-20T07:49:30;6.80;99.90
4215;DHT22;2121;48.062;7.850;2022-11-20T07:51:56;6.70;99.90
4215;DHT22;2121;48.062;7.850;2022-11-20T07:54:22;6.70;99.90
4215;DHT22;2121;48.062;7.850;2022-11-20T07:56:49;6.70;99.90
4215;DHT22;2121;48.062;7.850;2022-11-20T07:59:15;6.70;99.90
4215;DHT22;2121;48.062;7.850;2022-11-20T08:01:41;6.70;99.90
4215;DHT22;2121;48.062;7.850;2022-11-20T08:04:08;6.70;99.90
4215;DHT22;2121;48.062;7.850;2022-11-20T08:06:35;6.70;99.90
4215;DHT22;2121;48.062;7.850;2022-11-20T08:09:01;6.60;99.90
4215;DHT22;2121;48.062;7.850;2022-11-20T08:11:27;6.60;99.90
4215;DHT22;2121;48.062;7.850;2022-11-20T08:14:12;6.70;99.90
4215;DHT22;2121;48.062;7.850;2022-11-20T08:16:46;6.70;99.90
4215;DHT22;2121;48.062;7.850;2022-11-20T08:19:14;6.70;99.90
4215;DHT22;2121;48.062;7.850;2022-11-20T08:21:41;6.80;99.90
4215;DHT22;2121;48.062;7.850;2022-11-20T08:24:08;6.80;99.90
4215;DHT22;2121;48.062;7.850;2022-11-20T08:26:36;6.80;99.90
4215;DHT22;2121;48.062;7.850;2022-11-20T08:29:03;6.80;99.90
4215;DHT22;2121;48.062;7.850;2022-11-20T08:31:29;6.90;99.90
4215;DHT22;2121;48.062;7.850;2022-11-20T08:33:55;6.90;99.90
4215;DHT22;2121;48.062;7.850;2022-11-20T08:36:22;6.90;99.90
4215;DHT22;2121;48.062;7.850;2022-11-20T08:38:49;6.90;99.90
4215;DHT22;2121;48.062;7.850;2022-11-20T08:41:15;7.00;99.90
4215;DHT22;2121;48.062;7.850;2022-11-20T08:44:04;7.10;99.90
4215;DHT22;2121;48.062;7.850;2022-11-20T08:46:37;7.10;99.90
4215;DHT22;2121;48.062;7.850;2022-11-20T08:49:08;7.10;99.90
4215;DHT22;2121;48.062;7.850;2022-11-20T08:51:36;7.00;99.90
4215;DHT22;2121;48.062;7.850;2022-11-20T08:54:02;7.10;99.90
4215;DHT22;2121;48.062;7.850;2022-11-20T08:56:29;7.20;99.90
4215;DHT22;2121;48.062;7.850;2022-11-20T08:58:55;7.10;99.90
4215;DHT22;2121;48.062;7.850;2022-11-20T09:01:22;7.20;99.90
4215;DHT22;2121;48.062;7.850;2022-11-20T09:03:49;7.20;99.90
4215;DHT22;2121;48.062;7.850;2022-11-20T09:06:15;7.20;99.90
4215;DHT22;2121;48.062;7.850;2022-11-20T09:08:41;7.20;99.90
4215;DHT22;2121;48.062;7.850;2022-11-20T09:11:07;7.20;99.90
4215;DHT22;2121;48.062;7.850;2022-11-20T09:13:35;7.20;99.90
4215;DHT22;2121;48.062;7.850;2022-11-20T09:16:03;7.10;99.90
4215;DHT22;2121;48.062;7.850;2022-11-20T09:18:34;7.20;99.90
4215;DHT22;2121;48.062;7.850;2022-11-20T09:21:06;7.20;99.90
4215;DHT22;2121;48.062;7.850;2022-11-20T09:23:36;7.20;99.90
4215;DHT22;2121;48.062;7.850;2022-11-20T09:26:11;7.30;99.90
4215;DHT22;2121;48.062;7.850;2022-11-20T09:28:37;7.30;99.90
4215;DHT22;2121;48.062;7.850;2022-11-20T09:31:07;7.40;99.90
4215;DHT22;2121;48.062;7.850;2022-11-20T09:33:35;7.40;99.90
4215;DHT22;2121;48.062;7.850;2022-11-20T09:36:01;7.50;99.90
4215;DHT22;2121;48.062;7.850;2022-11-20T09:38:27;7.50;99.90
4215;DHT22;2121;48.062;7.850;2022-11-20T09:40:58;7.50;99.90
4215;DHT22;2121;48.062;7.850;2022-11-20T09:52:01;7.70;99.90
4215;DHT22;2121;48.062;7.850;2022-11-20T09:54:39;7.70;99.90
4215;DHT22;2121;48.062;7.850;2022-11-20T09:57:11;7.70;99.90
4215;DHT22;2121;48.062;7.850;2022-11-20T09:59:44;7.70;99.90
4215;DHT22;2121;48.062;7.850;2022-11-20T10:05:23;7.90;99.90
4215;DHT22;2121;48.062;7.850;2022-11-20T10:10:54;8.00;99.90
4215;DHT22;2121;48.062;7.850;2022-11-20T10:19:27;8.10;99.90
4215;DHT22;2121;48.062;7.850;2022-11-20T10:30:21;8.10;99.90
4215;DHT22;2121;48.062;7.850;2022-11-20T10:32:53;8.10;99.90
4215;DHT22;2121;48.062;7.850;2022-11-20T10:35:39;8.00;99.90
4215;DHT22;2121;48.062;7.850;2022-11-20T10:38:15;8.10;99.90
4215;DHT22;2121;48.062;7.850;2022-11-20T10:40:56;8.20;99.90
4215;DHT22;2121;48.062;7.850;2022-11-20T10:43:43;8.20;99.90
4215;DHT22;2121;48.062;7.850;2022-11-20T10:46:17;8.20;99.90
4215;DHT22;2121;48.062;7.850;2022-11-20T10:48:45;8.30;99.90
4215;DHT22;2121;48.062;7.850;2022-11-20T10:51:31;8.40;99.90
4215;DHT22;2121;48.062;7.850;2022-11-20T10:56:51;8.60;99.90
4215;DHT22;2121;48.062;7.850;2022-11-20T10:59:52;8.60;99.90
4215;DHT22;2121;48.062;7.850;2022-11-20T11:02:39;8.60;99.90
4215;DHT22;2121;48.062;7.850;2022-11-20T11:05:22;8.70;99.90
4215;DHT22;2121;48.062;7.850;2022-11-20T11:07:56;8.60;99.90
4215;DHT22;2121;48.062;7.850;2022-11-20T11:10:46;8.50;99.90
4215;DHT22;2121;48.062;7.850;2022-11-20T11:13:28;8.50;99.90
4215;DHT22;2121;48.062;7.850;2022-11-20T11:15:55;8.50;99.90
4215;DHT22;2121;48.062;7.850;2022-11-20T11:18:26;8.60;99.90
4215;DHT22;2121;48.062;7.850;2022-11-20T11:20:54;8.50;99.90
4215;DHT22;2121;48.062;7.850;2022-11-20T11:23:39;8.40;99.90
4215;DHT22;2121;48.062;7.850;2022-11-20T11:26:17;8.70;99.90
4215;DHT22;2121;48.062;7.850;2022-11-20T11:29:03;9.20;99.90
4215;DHT22;2121;48.062;7.850;2022-11-20T11:31:33;9.70;99.90
4215;DHT22;2121;48.062;7.850;2022-11-20T11:36:40;9.90;99.90
4215;DHT22;2121;48.062;7.850;2022-11-20T11:39:13;9.90;99.90
4215;DHT22;2121;48.062;7.850;2022-11-20T11:41:40;9.90;99.90
4215;DHT22;2121;48.062;7.850;2022-11-20T11:44:17;10.10;99.90
4215;DHT22;2121;48.062;7.850;2022-11-20T11:47:04;10.10;99.90
4215;DHT22;2121;48.062;7.850;2022-11-20T11:49:31;10.30;99.90
4215;DHT22;2121;48.062;7.850;2022-11-20T11:54:53;10.80;99.90
4215;DHT22;2121;48.062;7.850;2022-11-20T12:00:21;10.90;99.90
4215;DHT22;2121;48.062;7.850;2022-11-20T12:03:03;11.10;99.90
4215;DHT22;2121;48.062;7.850;2022-11-20T12:05:40;10.90;99.90
4215;DHT22;2121;48.062;7.850;2022-11-20T12:08:31;10.60;99.90
4215;DHT22;2121;48.062;7.850;2022-11-20T12:13:58;10.70;99.90
4215;DHT22;2121;48.062;7.850;2022-11-20T12:16:32;10.70;99.90
4215;DHT22;2121;48.062;7.850;2022-11-20T12:19:01;10.60;99.90
4215;DHT22;2121;48.062;7.850;2022-11-20T12:25:13;10.60;99.90
4215;DHT22;2121;48.062;7.850;2022-11-20T12:34:17;10.10;99.90
4215;DHT22;2121;48.062;7.850;2022-11-20T12:39:42;9.70;99.90
4215;DHT22;2121;48.062;7.850;2022-11-20T12:42:36;9.60;99.90
4215;DHT22;2121;48.062;7.850;2022-11-20T12:45:46;9.70;99.90
4215;DHT22;2121;48.062;7.850;2022-11-20T12:48:52;9.70;99.90
4215;DHT22;2121;48.062;7.850;2022-11-20T12:54:57;10.00;99.90
4215;DHT22;2121;48.062;7.850;2022-11-20T12:57:53;10.40;99.90
4215;DHT22;2121;48.062;7.850;2022-11-20T13:00:24;10.60;99.90
4215;DHT22;2121;48.062;7.850;2022-11-20T13:08:48;11.30;99.90
4215;DHT22;2121;48.062;7.850;2022-11-20T13:17:05;10.10;99.90
4215;DHT22;2121;48.062;7.850;2022-11-20T13:19:35;10.10;99.90
4215;DHT22;2121;48.062;7.850;2022-11-20T13:22:01;10.30;99.90
4215;DHT22;2121;48.062;7.850;2022-11-20T13:24:29;10.30;99.90
4215;DHT22;2121;48.062;7.850;2022-11-20T13:29:42;10.30;99.90
4215;DHT22;2121;48.062;7.850;2022-11-20T13:32:18;10.30;99.90
4215;DHT22;2121;48.062;7.850;2022-11-20T13:34:56;10.20;99.90
4215;DHT22;2121;48.062;7.850;2022-11-20T13:37:38;10.20;99.90
4215;DHT22;2121;48.062;7.850;2022-11-20T13:42:40;10.30;99.90
4215;DHT22;2121;48.062;7.850;2022-11-20T13:45:24;10.10;99.90
4215;DHT22;2121;48.062;7.850;2022-11-20T13:47:56;9.90;99.90
4215;DHT22;2121;48.062;7.850;2022-11-20T13:50:46;9.70;99.90
4215;DHT22;2121;48.062;7.850;2022-11-20T14:01:51;9.40;99.90
4215;DHT22;2121;48.062;7.850;2022-11-20T14:04:42;9.50;99.90
4215;DHT22;2121;48.062;7.850;2022-11-20T14:07:10;9.70;99.90
4215;DHT22;2121;48.062;7.850;2022-11-20T14:09:36;10.00;99.90
4215;DHT22;2121;48.062;7.850;2022-11-20T14:12:04;10.10;99.90
4215;DHT22;2121;48.062;7.850;2022-11-20T14:14:49;10.20;99.90
4215;DHT22;2121;48.062;7.850;2022-11-20T14:17:21;9.90;99.90
4215;DHT22;2121;48.062;7.850;2022-11-20T14:19:51;9.80;99.90
4215;DHT22;2121;48.062;7.850;2022-11-20T14:24:48;9.40;99.90
4215;DHT22;2121;48.062;7.850;2022-11-20T14:27:18;9.20;99.90
4215;DHT22;2121;48.062;7.850;2022-11-20T14:29:46;9.10;99.90
4215;DHT22;2121;48.062;7.850;2022-11-20T14:32:22;9.10;99.90
4215;DHT22;2121;48.062;7.850;2022-11-20T14:34:51;9.00;99.90
4215;DHT22;2121;48.062;7.850;2022-11-20T14:37:21;9.00;99.90
4215;DHT22;2121;48.062;7.850;2022-11-20T14:39:55;9.00;99.90
4215;DHT22;2121;48.062;7.850;2022-11-20T14:42:25;8.90;99.90
4215;DHT22;2121;48.062;7.850;2022-11-20T14:44:58;8.80;99.90
4215;DHT22;2121;48.062;7.850;2022-11-20T14:47:29;8.70;99.90
4215;DHT22;2121;48.062;7.850;2022-11-20T14:49:57;8.70;99.90
4215;DHT22;2121;48.062;7.850;2022-11-20T14:52:25;8.60;99.90
4215;DHT22;2121;48.062;7.850;2022-11-20T14:54:57;8.60;99.90
4215;DHT22;2121;48.062;7.850;2022-11-20T14:57:30;8.50;99.90
4215;DHT22;2121;48.062;7.850;2022-11-20T15:02:43;8.40;99.90
4215;DHT22;2121;48.062;7.850;2022-11-20T15:05:10;8.40;99.90
4215;DHT22;2121;48.062;7.850;2022-11-20T15:07:39;8.40;99.90
4215;DHT22;2121;48.062;7.850;2022-11-20T15:10:20;8.40;99.90
4215;DHT22;2121;48.062;7.850;2022-11-20T15:12:54;8.40;99.90
4215;DHT22;2121;48.062;7.850;2022-11-20T15:15:32;8.30;99.90
4215;DHT22;2121;48.062;7.850;2022-11-20T15:18:01;8.30;99.90
4215;DHT22;2121;48.062;7.850;2022-11-20T15:20:29;8.30;99.90
4215;DHT22;2121;48.062;7.850;2022-11-20T15:22:57;8.30;99.90
4215;DHT22;2121;48.062;7.850;2022-11-20T15:25:23;8.30;99.90
4215;DHT22;2121;48.062;7.850;2022-11-20T15:27:53;8.30;99.90
4215;DHT22;2121;48.062;7.850;2022-11-20T15:30:21;8.30;99.90
4215;DHT22;2121;48.062;7.850;2022-11-20T15:32:47;8.30;99.90
4215;DHT22;2121;48.062;7.850;2022-11-20T15:35:14;8.20;99.90
4215;DHT22;2121;48.062;7.850;2022-11-20T15:37:41;8.20;99.90
4215;DHT22;2121;48.062;7.850;2022-11-20T15:40:07;8.10;99.90
4215;DHT22;2121;48.062;7.850;2022-11-20T15:42:34;8.10;99.90
4215;DHT22;2121;48.062;7.850;2022-11-20T15:45:01;8.10;99.90
4215;DHT22;2121;48.062;7.850;2022-11-20T15:47:32;8.00;99.90
4215;DHT22;2121;48.062;7.850;2022-11-20T15:49:59;8.10;99.90
4215;DHT22;2121;48.062;7.850;2022-11-20T15:52:26;8.00;99.90
4215;DHT22;2121;48.062;7.850;2022-11-20T15:54:51;8.00;99.90
4215;DHT22;2121;48.062;7.850;2022-11-20T15:57:17;8.00;99.90
4215;DHT22;2121;48.062;7.850;2022-11-20T15:59:43;8.00;99.90
4215;DHT22;2121;48.062;7.850;2022-11-20T16:02:11;8.00;99.90
4215;DHT22;2121;48.062;7.850;2022-11-20T16:04:38;8.00;99.90
4215;DHT22;2121;48.062;7.850;2022-11-20T16:07:03;8.00;99.90
4215;DHT22;2121;48.062;7.850;2022-11-20T16:09:29;8.10;99.90
4215;DHT22;2121;48.062;7.850;2022-11-20T16:11:55;8.20;99.90
4215;DHT22;2121;48.062;7.850;2022-11-20T16:14:21;8.00;99.90
4215;DHT22;2121;48.062;7.850;2022-11-20T16:17:05;8.00;99.90
4215;DHT22;2121;48.062;7.850;2022-11-20T16:19:31;8.00;99.90
4215;DHT22;2121;48.062;7.850;2022-11-20T16:22:00;8.00;99.90
4215;DHT22;2121;48.062;7.850;2022-11-20T16:24:28;8.00;99.90
4215;DHT22;2121;48.062;7.850;2022-11-20T16:26:55;8.00;99.90
4215;DHT22;2121;48.062;7.850;2022-11-20T16:29:21;8.00;99.90
4215;DHT22;2121;48.062;7.850;2022-11-20T16:31:46;8.00;99.90
4215;DHT22;2121;48.062;7.850;2022-11-20T16:34:12;8.00;99.90
4215;DHT22;2121;48.062;7.850;2022-11-20T16:36:42;7.90;99.90
4215;DHT22;2121;48.062;7.850;2022-11-20T16:39:10;7.90;99.90
4215;DHT22;2121;48.062;7.850;2022-11-20T16:41:37;7.90;99.90
4215;DHT22;2121;48.062;7.850;2022-11-20T16:44:08;8.00;99.90
4215;DHT22;2121;48.062;7.850;2022-11-20T16:46:35;8.00;99.90
4215;DHT22;2121;48.062;7.850;2022-11-20T16:49:06;8.00;99.90
4215;DHT22;2121;48.062;7.850;2022-11-20T16:51:36;8.00;99.90
4215;DHT22;2121;48.062;7.850;2022-11-20T16:54:06;8.00;99.90
4215;DHT22;2121;48.062;7.850;2022-11-20T16:56:33;8.00;99.90
4215;DHT22;2121;48.062;7.850;2022-11-20T16:58:59;8.00;99.90
4215;DHT22;2121;48.062;7.850;2022-11-20T17:01:27;8.00;99.90
4215;DHT22;2121;48.062;7.850;2022-11-20T17:04:01;8.00;99.90
4215;DHT22;2121;48.062;7.850;2022-11-20T17:06:31;8.00;99.90
4215;DHT22;2121;48.062;7.850;2022-11-20T17:09:01;8.00;99.90
4215;DHT22;2121;48.062;7.850;2022-11-20T17:11:27;8.00;99.90
4215;DHT22;2121;48.062;7.850;2022-11-20T17:13:55;8.00;99.90
4215;DHT22;2121;48.062;7.850;2022-11-20T17:16:23;8.00;99.90
4215;DHT22;2121;48.062;7.850;2022-11-20T17:18:49;8.00;99.90
4215;DHT22;2121;48.062;7.850;2022-11-20T17:21:17;7.90;99.90
4215;DHT22;2121;48.062;7.850;2022-11-20T17:23:44;8.00;99.90
4215;DHT22;2121;48.062;7.850;2022-11-20T17:26:21;7.90;99.90
4215;DHT22;2121;48.062;7.850;2022-11-20T17:31:20;7.90;99.90
4215;DHT22;2121;48.062;7.850;2022-11-20T17:33:46;7.90;99.90
4215;DHT22;2121;48.062;7.850;2022-11-20T17:36:15;7.80;99.90
4215;DHT22;2121;48.062;7.850;2022-11-20T17:38:42;7.80;99.90
4215;DHT22;2121;48.062;7.850;2022-11-20T17:41:14;7.80;99.90
4215;DHT22;2121;48.062;7.850;2022-11-20T17:43:41;7.90;99.90
4215;DHT22;2121;48.062;7.850;2022-11-20T17:46:08;7.90;99.90
4215;DHT22;2121;48.062;7.850;2022-11-20T17:48:39;8.00;99.90
4215;DHT22;2121;48.062;7.850;2022-11-20T17:51:10;7.80;99.90
4215;DHT22;2121;48.062;7.850;2022-11-20T17:53:41;7.60;99.90
4215;DHT22;2121;48.062;7.850;2022-11-20T17:56:08;7.30;99.90
4215;DHT22;2121;48.062;7.850;2022-11-20T17:58:53;7.00;99.90
4215;DHT22;2121;48.062;7.850;2022-11-20T18:01:19;6.70;99.90
4215;DHT22;2121;48.062;7.850;2022-11-20T18:03:45;6.50;99.90
4215;DHT22;2121;48.062;7.850;2022-11-20T18:06:19;6.20;99.90
4215;DHT22;2121;48.062;7.850;2022-11-20T18:08:47;5.90;99.90
4215;DHT22;2121;48.062;7.850;2022-11-20T18:13:44;5.50;99.90
4215;DHT22;2121;48.062;7.850;2022-11-20T18:16:33;5.40;99.90
4215;DHT22;2121;48.062;7.850;2022-11-20T18:19:10;5.30;99.90
4215;DHT22;2121;48.062;7.850;2022-11-20T18:21:37;5.30;99.90
4215;DHT22;2121;48.062;7.850;2022-11-20T18:24:03;5.20;99.90
4215;DHT22;2121;48.062;7.850;2022-11-20T18:26:29;5.10;99.90
4215;DHT22;2121;48.062;7.850;2022-11-20T18:28:55;5.10;99.90